Terminal Aerodrome Forecast
Issued by NWS

Home | Current Version | Previous Version | Text Only | Print | Product List | Glossary On
Versions: 1 2 3 4 5 6 7 8 9 10 11 12 13 14 15 16 17 18 19 20 21 22 23 24 25 26 27
000
FTUS41 KCAR 301720
TAFHUL
TAF
KHUL 301720Z 3018/0118 35007KT P6SM FEW200
     FM010200 00000KT P6SM BKN120
     FM010800 00000KT 5SM -RA OVC020
     FM011000 14006KT 2SM -RASN BKN008 OVC010
     FM011500 11007KT 5SM -RA OVC008=

USA.gov is the U.S. government's official web portal to all federal, state and local government web resources and services.